Waynesville-St. Robert Regional Forney field Fort Leonard Wood US
ICAO: KTBN
IATA: TBN
Category: Medium
Scheduled Services: Yes

Elevation: 1159 ft
TransAlt. 18000 ft.

Airport Communications:
ATIS:118.7
KANSAS CITY CNTR:133.8
CTAF:125.4
FORNEY TWR:125.4

KTBN Zoom In..

Runways:

(A) RW 14 length 6038 ft width 150 ft
ILS 110.90 / hdg 144

(B) RW 32 length 6038 ft width 150 ft
---- / hdg 324

Location; KTBN
Day. 19 / Time. 02.56 Zulu
* Altimeter: 29.98
* Temperature: 23° c. 73.4°f.
* Wind from: KTB° Speed N kn.
Dewpoint: 21° c.
Visibility: 10 Statute Miles.
Clouds: Broken 3900 ft.

KTBN 190256Z AUTO 00000KT 10SM BKN039 23/21 A2998 RMK AO2 RAB15E33DZB33E51 SLPNO P0002 60002 T02300212 52010


Wind From KTB°
Speed N kn.

 
 
jpsmedia.com for Web Design worldairports.se 2018   terms of use